• Join FlightAware (Why Join?)
  • Login
  • US Flag 
04:25AM EDT


 

Airport Tracker/Info


-or-


 

Live Flight TrackerFlight Track Log ✈ N957AN ✈ 29-Apr-2013 ✈ KORD - KBOS

Flight Track Log - Related Links

Times and Time Zones

All times are in EDT time to prevent confusion due to time zone crossing. See the N957AN flight status page for this flight to view local times or setup timezone preferences in your user account.

Time Position Orientation Groundspeed Altitude Reporting Facility
EDT Latitude Longitude Course Direction KTS MPH feet Rate Location/Type
02:20PM 41.9333 -87.8667 85° East 203 234 3,000  Level Chicago TRACON
02:21PM 41.9500 -87.7667 77° East 282 325 5,100 2,820 Climbing Chicago TRACON
02:23PM 42.1817 -87.3217 66° East  Level FlightAware Approximate
02:23PM 42.0572 -87.6736 33° Northeast 296 341 10,900  Level Chicago Center
02:24PM 42.2341 -87.1731 62° Northeast  Level FlightAware Approximate
02:24PM 42.1278 -87.6050 36° Northeast 315 362 13,900  Level Chicago Center
02:25PM 42.2681 -87.0272 85° East  Level FlightAware Approximate
02:25PM 42.1931 -87.4836 54° Northeast 335 386 16,800  Level Chicago Center
02:26PM 42.2203 -87.3581 74° East 346 398 18,500 1,440 Climbing Chicago Center
02:27PM 42.2508 -87.2067 75° East 411 473 19,800 1,500 Climbing Chicago Center
02:28PM 42.2811 -87.0442 76° East 444 511 21,600 1,620 Climbing Chicago Center
02:29PM 42.2878 -86.8667 87° East 471 542 23,200 1,620 Climbing Chicago Center
02:30PM 42.2953 -86.6606 87° East 488 562 25,000 1,740 Climbing Chicago Center
02:31PM 42.3031 -86.4731 87° East 500 575 26,900 1,740 Climbing Chicago Center
02:32PM 42.3089 -86.2872 88° East 500 575 28,700 1,680 Climbing Chicago Center
02:33PM 42.3150 -86.1031 87° East 497 572 30,400 1,560 Climbing Chicago Center
02:34PM 42.3133 -85.9175 91° East 499 574 32,000 1,620 Climbing Chicago Center
02:35PM 42.3106 -85.6975 91° East 495 570 33,800 1,380 Climbing Chicago Center
02:36PM 42.3083 -85.5133 91° East 494 568 34,900 600 Climbing Chicago Center
02:37PM 42.3083 -85.3739 90° East 497 572 35,000  Climbing Cleveland Center
02:38PM 42.3053 -85.1883 91° East 497 572 35,000 480 Level Cleveland Center
02:39PM 42.3003 -85.0025 92° East 497 572 36,000 480 Climbing Cleveland Center
02:40PM 42.2989 -84.8169 91° East 497 572 36,000  Level Cleveland Center
02:41PM 42.2875 -84.6114 94° East 495 570 36,000 480 Level Cleveland Center
02:42PM 42.2917 -84.4289 88° East 490 564 37,000  Climbing Cleveland Center
02:43PM 42.3144 -84.2450 80° East 485 558 36,000 -540 Descending Cleveland Center
02:44PM 42.3303 -84.0633 83° East 485 558 36,000 -240 Level Cleveland Center
02:45PM 42.3483 -83.8789 82° East 485 558 35,600 -480 Descending Cleveland Center
02:46PM 42.3611 -83.7194 84° East 485 558 35,100 -300 Descending Cleveland Center
02:47PM 42.3767 -83.5317 84° East 485 558 35,000 -60 Descending Cleveland Center
02:48PM 42.3919 -83.3328 84° East 485 558 35,000  Level Cleveland Center
02:49PM 42.4061 -83.1647 83° East 485 558 35,000  Level Cleveland Center
02:50PM 42.4186 -82.9822 85° East 485 558 35,000  Level Cleveland Center
02:51PM 42.4325 -82.8028 84° East 480 552 35,000  Level Cleveland Center
02:52PM 42.4464 -82.6231 84° East 480 552 35,000  Level Cleveland Center
02:53PM 42.4597 -82.4464 84° East 474 545 35,000  Level Cleveland Center
02:54PM 42.4708 -82.2664 85° East 479 551 35,000  Level Cleveland Center
02:55PM 42.4817 -82.0922 85° East 473 544 35,000  Level Cleveland Center
02:56PM 42.4942 -81.9122 85° East 478 550 35,000  Level Cleveland Center
02:57PM 42.5086 -81.7322 84° East 478 550 35,000  Level Cleveland Center
02:58PM 42.5208 -81.5522 85° East 473 544 35,000  Level Cleveland Center
02:59PM 42.5325 -81.3750 85° East 479 551 35,000  Level Cleveland Center
03:00PM 42.5397 -81.1947 87° East 479 551 35,000  Level Cleveland Center
03:01PM 42.5511 -81.0172 85° East 479 551 35,000  Level Cleveland Center
03:02PM 42.5642 -80.8228 85° East 479 551 35,000  Level Cleveland Center
03:03PM 42.5728 -80.6425 86° East 479 551 35,000  Level Cleveland Center
03:04PM 42.5831 -80.4647 85° East 479 551 35,000  Level Cleveland Center
03:05PM 42.5933 -80.2814 86° East 479 551 35,000  Level Cleveland Center
03:06PM 42.6008 -80.1036 87° East 474 545 35,000  Level Cleveland Center
03:07PM 42.6125 -79.9258 85° East 474 545 35,000  Level Cleveland Center
03:08PM 42.6219 -79.7481 86° East 474 545 35,000  Level Cleveland Center
03:09PM 42.6308 -79.5700 86° East 474 545 35,000  Level Cleveland Center
03:10PM 42.6375 -79.3894 87° East 474 545 35,000  Level Cleveland Center
03:11PM 42.6439 -79.2086 87° East 479 551 35,000  Level Cleveland Center
03:12PM 42.6539 -79.0278 86° East 479 551 35,000  Level Cleveland Center
03:13PM 42.6597 -78.8442 87° East 479 551 35,000  Level Cleveland Center
03:14PM 42.6672 -78.6603 87° East 479 551 35,000  Level Cleveland Center
03:15PM 42.6744 -78.4794 87° East 479 551 35,000  Level Cleveland Center
03:16PM 42.6794 -78.3011 88° East 479 551 35,000  Level Cleveland Center
03:17PM 42.6883 -78.1200 86° East 479 551 35,000  Level Cleveland Center
03:18PM 42.6925 -77.9392 88° East 479 551 35,000  Level Cleveland Center
03:19PM 42.6972 -77.7806 88° East 479 551 35,000  Level Cleveland Center
03:20PM 42.7033 -77.6053 87° East 474 545 35,000  Level Cleveland Center
03:22PM 42.7103 -77.2728 88° East 470 541 35,000  Level Boston Center
03:23PM 42.7156 -77.0953 88° East 465 535 35,000  Level Boston Center
03:24PM 42.7189 -76.9144 89° East 465 535 35,000  Level Boston Center
03:25PM 42.7233 -76.7394 88° East 465 535 35,000  Level Boston Center
03:26PM 42.7261 -76.5586 89° East 470 541 35,000  Level Boston Center
03:27PM 42.7303 -76.3808 88° East 475 547 35,000  Level Boston Center
03:28PM 42.7350 -76.1803 88° East 475 547 35,000  Level Boston Center
03:29PM 42.7367 -75.9994 89° East 475 547 35,000  Level Boston Center
03:30PM 42.7378 -75.8186 89° East 475 547 35,000  Level Boston Center
03:31PM 42.7400 -75.6036 89° East 475 547 35,000 -60 Level Boston Center
03:32PM 42.7428 -75.4228 89° East 475 547 34,900 -300 Descending Boston Center
03:33PM 42.7453 -75.2419 89° East 475 547 34,400 -660 Descending Boston Center
03:34PM 42.7456 -75.0583 90° East 475 547 33,600 -720 Descending Boston Center
03:35PM 42.7472 -74.8772 89° East 475 547 33,000 -300 Descending Boston Center
03:36PM 42.7469 -74.6936 90° East 475 547 33,000 -60 Level Boston Center
03:37PM 42.7483 -74.5097 89° East 475 547 32,900  Descending Boston Center
03:38PM 42.7472 -74.3286 90° East 475 547 33,000  Climbing Boston Center
03:39PM 42.7461 -74.1450 90° East 480 552 32,900 -60 Descending Boston Center
03:40PM 42.7447 -73.9556 91° East 480 552 32,900  Level Boston Center
03:41PM 42.7428 -73.7717 91° East 480 552 33,000 -60 Climbing Boston Center
03:42PM 42.7261 -73.5875 97° East 480 552 32,800 -1,020 Descending Boston Center
03:43PM 42.7047 -73.4036 99° East 480 552 31,000 -1,800 Descending Boston Center
03:44PM 42.6875 -73.2253 97° East 485 558 29,200 -1,860 Descending Boston Center
03:46PM 42.6555 -73.0025 101° East  Level FlightAware Approximate
03:46PM 42.6475 -72.8636 101° East 504 580 25,500  Level Boston Center
03:47PM 42.6253 -72.6800 99° East 498 573 23,600 -1,860 Descending Boston Center
03:48PM 42.6108 -72.5161 97° East 471 542 21,800 -1,620 Descending Boston Center
03:49PM 42.5839 -72.3414 102° East 471 542 20,400 -1,500 Descending Boston Center
03:50PM 42.5606 -72.1722 101° East 432 497 18,800 -1,680 Descending Boston Center
03:51PM 42.5433 -72.0286 99° East 426 490 17,100 -2,220 Descending Boston Center
03:52PM 42.5281 -71.8597 97° East 419 482 14,400 -2,520 Descending Boston Center
03:53PM 42.5150 -71.7275 98° East 401 461 12,100 -2,100 Descending Boston Center
03:54PM 42.5000 -71.6167 100° East 391 450 11,000 -1,260 Descending KA90
03:55PM 42.5000 -71.4833 90° East 344 396 10,100 -840 Descending KA90
03:56PM 42.4833 -71.3667 101° East 293 337 9,400 -720 Descending KA90
03:57PM 42.4667 -71.2667 103° East 282 325 8,700 -780 Descending KA90
03:58PM 42.4667 -71.1667 90° East 287 330 8,000 -720 Descending KA90
03:59PM 42.4500 -71.0667 103° East 254 292 7,300 -600 Descending KA90
04:00PM 42.4167 -71.0000 124° Southeast 227 261 6,800 -420 Descending KA90
04:01PM 42.3667 -70.9667 154° Southeast 226 260 6,500 -540 Descending KA90
04:02PM 42.3000 -70.9333 160° South 223 257 5,800 -900 Descending KA90
04:03PM 42.2500 -70.9667 206° Southwest 209 241 4,800 -960 Descending KA90
04:04PM 42.2000 -70.9833 194° South 210 242 4,000 -900 Descending KA90
04:05PM 42.1833 -71.0500 251° West 219 252 3,100 -600 Descending KA90
04:06PM 42.2333 -71.0667 346° North 194 223 2,800 -720 Descending KA90
04:07PM 42.2833 -71.0500 14° North 191 220 1,700 -1,080 Descending KA90
04:08PM 42.3333 -71.0167 26° Northeast 170 196 600 -1,020 Descending KA90
04:10PM 42.3500 -71.0000 North  Level FlightAware Approximate